createdAt,value
2023-01-21T00:01:12.880Z,100610.63
2023-01-21T00:03:40.851Z,100613.88
2023-01-21T00:06:08.977Z,100603.44
2023-01-21T00:08:36.618Z,100599.88
2023-01-21T00:11:06.546Z,100602.69
2023-01-21T00:13:36.309Z,100595.84
2023-01-21T00:16:05.326Z,100592.59
2023-01-21T00:18:34.011Z,100590.28
2023-01-21T00:21:01.859Z,100591.31
2023-01-21T00:23:29.606Z,100585.28
2023-01-21T00:26:01.924Z,100586.97
2023-01-21T00:28:31.032Z,100577.47
2023-01-21T00:31:01.156Z,100577.63
2023-01-21T00:33:29.629Z,100576.97
2023-01-21T00:36:01.701Z,100568.44
2023-01-21T00:38:30.578Z,100560.72
2023-01-21T00:41:07.511Z,100568.59
2023-01-21T00:43:36.135Z,100557.59
2023-01-21T00:46:04.638Z,100557.75
2023-01-21T00:48:32.916Z,100552.72
2023-01-21T00:51:01.066Z,100561.88
2023-01-21T00:53:31.023Z,100554.22
2023-01-21T00:56:04.013Z,100560.00
2023-01-21T00:58:32.689Z,100553.25
2023-01-21T01:01:05.829Z,100553.38
2023-01-21T01:03:34.388Z,100555.06
2023-01-21T01:06:07.315Z,100559.16
2023-01-21T01:08:35.577Z,100554.03
2023-01-21T01:11:04.276Z,100556.47
2023-01-21T01:13:34.430Z,100551.75
2023-01-21T01:16:02.724Z,100558.81
2023-01-21T01:18:35.278Z,100563.28
2023-01-21T01:21:04.288Z,100548.53
2023-01-21T01:23:32.880Z,100543.03
2023-01-21T01:26:07.212Z,100543.34
2023-01-21T01:28:35.238Z,100536.19
2023-01-21T01:31:06.587Z,100538.84
2023-01-21T01:33:35.356Z,100537.66
2023-01-21T01:36:05.447Z,100532.56
2023-01-21T01:38:34.852Z,100527.72
2023-01-21T01:41:02.991Z,100537.72
2023-01-21T01:44:02.652Z,100523.28
2023-01-21T01:46:36.047Z,100522.94
2023-01-21T01:49:17.377Z,100518.94
2023-01-21T01:51:50.545Z,100511.34
2023-01-21T01:54:23.104Z,100519.00
2023-01-21T01:56:55.455Z,100504.47
2023-01-21T01:59:23.915Z,100506.06
2023-01-21T02:01:52.648Z,100494.13
2023-01-21T02:04:26.107Z,100492.94
2023-01-21T02:06:56.168Z,100484.25
2023-01-21T02:09:29.787Z,100477.44
2023-01-21T02:11:59.826Z,100473.22
2023-01-21T02:14:30.150Z,100472.44
2023-01-21T02:17:00.418Z,100468.78
2023-01-21T02:19:43.121Z,100462.88
2023-01-21T02:22:20.255Z,100450.59
2023-01-21T02:25:05.802Z,100449.72
2023-01-21T02:27:51.855Z,100452.16
2023-01-21T02:30:38.634Z,100444.84
2023-01-21T02:33:18.555Z,100436.34
2023-01-21T02:35:52.140Z,100439.59
2023-01-21T02:38:39.620Z,100423.31
2023-01-21T02:41:45.179Z,100426.44
2023-01-21T02:44:21.249Z,100415.66
2023-01-21T02:46:51.976Z,100418.63
2023-01-21T02:49:24.399Z,100408.84
2023-01-21T02:51:52.266Z,100410.38
2023-01-21T02:54:41.379Z,100403.72
2023-01-21T02:57:17.011Z,100390.69
2023-01-21T02:59:49.894Z,100392.38
2023-01-21T03:02:41.987Z,100393.81
2023-01-21T03:05:48.223Z,100390.19
2023-01-21T03:08:30.544Z,100385.69
2023-01-21T03:11:14.773Z,100386.41
2023-01-21T03:14:06.565Z,100381.16
2023-01-21T03:16:59.742Z,100380.22
2023-01-21T03:19:35.698Z,100374.59
2023-01-21T03:22:10.189Z,100373.44
2023-01-21T03:24:42.400Z,100376.97
2023-01-21T03:27:13.841Z,100372.69
2023-01-21T03:29:42.413Z,100362.56
2023-01-21T03:32:14.135Z,100366.19
2023-01-21T03:34:47.232Z,100359.31
2023-01-21T03:37:32.295Z,100360.88
2023-01-21T03:40:09.892Z,100351.91
2023-01-21T03:42:38.273Z,100351.84
2023-01-21T03:45:07.111Z,100347.56
2023-01-21T03:47:39.233Z,100346.88
2023-01-21T03:50:25.875Z,100346.34
2023-01-21T03:52:53.655Z,100341.25
2023-01-21T03:55:22.220Z,100338.00
2023-01-21T03:57:50.318Z,100336.63
2023-01-21T04:00:18.635Z,100339.31
2023-01-21T04:02:47.114Z,100333.66
2023-01-21T04:05:15.174Z,100330.84
2023-01-21T04:07:42.752Z,100335.34
2023-01-21T04:10:11.219Z,100333.75
2023-01-21T04:12:39.186Z,100330.88
2023-01-21T04:15:07.631Z,100336.41
2023-01-21T04:17:35.306Z,100334.13
2023-01-21T04:20:03.075Z,100338.53
2023-01-21T04:22:31.743Z,100340.84
2023-01-21T04:24:59.244Z,100338.84
2023-01-21T04:27:26.894Z,100343.75
2023-01-21T04:29:54.512Z,100346.78
2023-01-21T04:32:22.194Z,100337.56
2023-01-21T04:34:49.828Z,100338.94
2023-01-21T04:37:17.896Z,100337.25
2023-01-21T04:39:45.965Z,100342.59
2023-01-21T04:42:14.123Z,100346.06
2023-01-21T04:44:41.702Z,100348.59
2023-01-21T04:47:09.264Z,100342.34
2023-01-21T04:49:36.774Z,100351.25
2023-01-21T04:52:04.626Z,100357.53
2023-01-21T04:54:32.486Z,100349.91
2023-01-21T04:57:00.603Z,100353.84
2023-01-21T04:59:28.226Z,100356.69
2023-01-21T05:01:56.427Z,100352.34
2023-01-21T05:04:24.100Z,100356.63
2023-01-21T05:06:51.769Z,100355.84
2023-01-21T05:09:19.746Z,100356.72
2023-01-21T05:11:47.300Z,100351.00
2023-01-21T05:14:15.187Z,100360.75
2023-01-21T05:16:42.767Z,100366.06
2023-01-21T05:19:10.883Z,100356.75
2023-01-21T05:21:38.361Z,100362.66
2023-01-21T05:24:06.678Z,100356.75
2023-01-21T05:26:34.775Z,100364.16
2023-01-21T05:29:02.440Z,100363.16
2023-01-21T05:31:30.043Z,100358.22
2023-01-21T05:33:58.285Z,100359.56
2023-01-21T05:36:25.868Z,100359.25
2023-01-21T05:38:53.407Z,100366.66
2023-01-21T05:41:21.515Z,100365.69
2023-01-21T05:43:49.076Z,100362.56
2023-01-21T05:46:16.815Z,100364.50
2023-01-21T05:48:44.400Z,100366.97
2023-01-21T05:51:12.370Z,100368.16
2023-01-21T05:53:40.220Z,100367.13
2023-01-21T05:56:08.632Z,100365.56
2023-01-21T05:58:36.853Z,100363.66
2023-01-21T06:01:05.078Z,100368.47
2023-01-21T06:03:32.576Z,100372.44
2023-01-21T06:06:00.292Z,100378.69
2023-01-21T06:08:27.910Z,100369.75
2023-01-21T06:10:56.486Z,100374.97
2023-01-21T06:13:24.969Z,100377.34
2023-01-21T06:15:56.862Z,100374.22
2023-01-21T06:18:25.438Z,100377.94
2023-01-21T06:20:53.248Z,100385.06
2023-01-21T06:23:20.750Z,100376.41
2023-01-21T06:25:48.254Z,100388.63
2023-01-21T06:28:15.688Z,100390.41
2023-01-21T06:30:43.752Z,100389.88
2023-01-21T06:33:11.313Z,100388.94
2023-01-21T06:35:38.823Z,100397.59
2023-01-21T06:38:06.684Z,100399.41
2023-01-21T06:40:34.344Z,100395.38
2023-01-21T06:43:02.436Z,100407.53
2023-01-21T06:45:30.399Z,100403.94
2023-01-21T06:47:57.864Z,100408.34
2023-01-21T06:50:25.452Z,100405.84
2023-01-21T06:52:53.395Z,100408.84
2023-01-21T06:55:20.873Z,100413.13
2023-01-21T06:57:48.433Z,100418.06
2023-01-21T07:00:16.988Z,100422.13
2023-01-21T07:02:44.707Z,100422.59
2023-01-21T07:05:12.302Z,100419.94
2023-01-21T07:07:41.076Z,100430.69
2023-01-21T07:10:09.284Z,100434.06
2023-01-21T07:12:36.841Z,100435.66
2023-01-21T07:15:05.059Z,100439.19
2023-01-21T07:17:32.993Z,100441.22
2023-01-21T07:20:01.008Z,100449.69
2023-01-21T07:22:28.555Z,100452.84
2023-01-21T07:24:56.449Z,100445.63
2023-01-21T07:27:24.239Z,100449.72
2023-01-21T07:29:52.272Z,100449.28
2023-01-21T07:32:20.393Z,100445.50
2023-01-21T07:34:47.880Z,100440.72
2023-01-21T07:37:15.810Z,100444.28
2023-01-21T07:39:43.717Z,100445.28
2023-01-21T07:42:11.186Z,100441.69
2023-01-21T07:44:38.694Z,100446.81
2023-01-21T07:47:06.234Z,100443.94
2023-01-21T07:49:34.031Z,100456.13
2023-01-21T07:52:01.679Z,100455.31
2023-01-21T07:54:29.870Z,100458.66
2023-01-21T07:56:57.948Z,100454.69
2023-01-21T07:59:25.650Z,100456.19
2023-01-21T08:01:54.074Z,100451.25
2023-01-21T08:04:21.730Z,100450.06
2023-01-21T08:06:51.134Z,100457.69
2023-01-21T08:09:18.860Z,100459.22
2023-01-21T08:11:46.816Z,100453.31
2023-01-21T08:14:14.335Z,100465.69
2023-01-21T08:16:41.960Z,100461.88
2023-01-21T08:19:09.547Z,100464.75
2023-01-21T08:21:37.080Z,100469.28
2023-01-21T08:24:06.141Z,100463.81
2023-01-21T08:26:33.642Z,100459.22
2023-01-21T08:29:01.156Z,100461.06
2023-01-21T08:31:29.177Z,100463.84
2023-01-21T08:33:59.229Z,100472.31
2023-01-21T08:36:27.249Z,100468.59
2023-01-21T08:39:06.434Z,100469.78
2023-01-21T08:41:34.188Z,100463.88
2023-01-21T08:44:02.320Z,100476.34
2023-01-21T08:46:29.882Z,100481.25
2023-01-21T08:48:57.335Z,100481.91
2023-01-21T08:51:24.899Z,100481.19
2023-01-21T08:53:53.039Z,100481.59
2023-01-21T08:56:20.740Z,100483.53
2023-01-21T08:58:48.671Z,100487.53
2023-01-21T09:01:16.597Z,100495.81
2023-01-21T09:03:44.194Z,100492.19
2023-01-21T09:06:12.595Z,100500.94
2023-01-21T09:08:42.157Z,100506.38
2023-01-21T09:11:10.180Z,100502.44
2023-01-21T09:13:39.893Z,100504.78
2023-01-21T09:16:10.355Z,100504.72
2023-01-21T09:18:38.333Z,100513.69
2023-01-21T09:21:07.600Z,100507.47
2023-01-21T09:23:36.565Z,100511.25
2023-01-21T09:26:15.141Z,100503.72
2023-01-21T09:28:45.727Z,100508.19
2023-01-21T09:31:16.401Z,100504.97
2023-01-21T09:33:49.283Z,100505.81
2023-01-21T09:36:20.199Z,100506.53
2023-01-21T09:38:48.956Z,100510.13
2023-01-21T09:41:30.369Z,100506.88
2023-01-21T09:44:06.622Z,100504.94
2023-01-21T09:46:56.498Z,100491.81
2023-01-21T09:49:33.563Z,100487.47
2023-01-21T09:52:19.316Z,100487.97
2023-01-21T09:54:46.897Z,100486.63
2023-01-21T09:57:40.060Z,100480.31
2023-01-21T10:00:22.743Z,100484.16
2023-01-21T10:02:53.178Z,100473.88
2023-01-21T10:06:02.551Z,100475.53
2023-01-21T10:09:02.895Z,100476.69
2023-01-21T10:11:51.434Z,100469.09
2023-01-21T10:14:47.572Z,100470.84
2023-01-21T10:18:06.005Z,100473.78
2023-01-21T10:20:50.849Z,100469.34
2023-01-21T10:23:23.355Z,100455.34
2023-01-21T10:25:51.177Z,100457.97
2023-01-21T10:28:23.645Z,100446.72
2023-01-21T10:31:04.848Z,100444.00
2023-01-21T10:33:33.379Z,100445.25
2023-01-21T10:36:09.763Z,100436.25
2023-01-21T10:38:47.525Z,100437.28
2023-01-21T10:41:47.959Z,100428.91
2023-01-21T10:44:39.541Z,100435.13
2023-01-21T10:47:19.218Z,100429.88
2023-01-21T10:49:58.169Z,100424.53
2023-01-21T10:52:34.295Z,100416.72
2023-01-21T10:55:26.823Z,100403.72
2023-01-21T10:58:20.524Z,100404.16
2023-01-21T11:00:51.119Z,100397.41
2023-01-21T11:03:41.489Z,100401.19
2023-01-21T11:06:13.716Z,100393.78
2023-01-21T11:08:45.206Z,100392.84
2023-01-21T11:11:15.794Z,100391.75
2023-01-21T11:13:43.647Z,100389.25
2023-01-21T11:16:11.981Z,100388.16
2023-01-21T11:18:43.658Z,100381.47
2023-01-21T11:21:20.173Z,100383.91
2023-01-21T11:23:54.311Z,100386.41
2023-01-21T11:26:28.413Z,100376.22
2023-01-21T11:29:11.361Z,100378.00
2023-01-21T11:31:41.063Z,100369.03
2023-01-21T11:34:21.248Z,100372.84
2023-01-21T11:36:59.542Z,100371.53
2023-01-21T11:39:30.130Z,100358.47
2023-01-21T11:42:03.127Z,100355.44
2023-01-21T11:44:31.239Z,100342.31
2023-01-21T11:46:59.317Z,100345.72
2023-01-21T11:49:28.605Z,100345.13
2023-01-21T11:52:14.007Z,100338.38
2023-01-21T11:54:41.835Z,100323.22
2023-01-21T11:57:21.894Z,100322.50
2023-01-21T11:59:50.360Z,100327.59
2023-01-21T12:02:22.084Z,100321.28
2023-01-21T12:04:53.818Z,100317.22
2023-01-21T12:07:35.394Z,100317.88
2023-01-21T12:10:12.182Z,100320.25
2023-01-21T12:13:17.596Z,100303.22
2023-01-21T12:16:23.755Z,100298.31
2023-01-21T12:19:31.176Z,100300.00
2023-01-21T12:21:59.196Z,100298.91
2023-01-21T12:24:30.109Z,100303.38
2023-01-21T12:26:58.149Z,100300.81
2023-01-21T12:29:26.305Z,100299.16
2023-01-21T12:32:02.609Z,100299.03
2023-01-21T12:34:37.154Z,100300.34
2023-01-21T12:37:26.806Z,100302.28
2023-01-21T12:39:58.134Z,100306.38
2023-01-21T12:42:34.230Z,100292.25
2023-01-21T12:45:07.016Z,100289.50
2023-01-21T12:48:02.054Z,100303.09
2023-01-21T12:50:36.260Z,100291.47
2023-01-21T12:53:10.174Z,100299.13
2023-01-21T12:56:00.629Z,100295.09
2023-01-21T12:58:36.884Z,100304.50
2023-01-21T13:01:14.387Z,100300.41
2023-01-21T13:03:53.612Z,100294.91
2023-01-21T13:06:53.514Z,100304.09
2023-01-21T13:09:36.219Z,100303.13
2023-01-21T13:12:11.583Z,100299.22
2023-01-21T13:14:48.616Z,100310.72
2023-01-21T13:17:31.429Z,100301.75
2023-01-21T13:19:59.340Z,100309.28
2023-01-21T13:22:59.659Z,100308.19
2023-01-21T13:25:45.419Z,100306.50
2023-01-21T13:28:18.583Z,100306.19
2023-01-21T13:30:53.743Z,100323.63
2023-01-21T13:33:34.501Z,100319.91
2023-01-21T13:36:20.514Z,100322.91
2023-01-21T13:39:11.482Z,100325.63
2023-01-21T13:41:38.952Z,100326.09
2023-01-21T13:44:55.136Z,100326.53
2023-01-21T13:47:32.495Z,100327.22
2023-01-21T13:50:09.181Z,100327.94
2023-01-21T13:53:04.340Z,100327.91
2023-01-21T13:55:53.273Z,100328.44
2023-01-21T13:58:41.077Z,100336.94
2023-01-21T14:01:13.461Z,100336.63
2023-01-21T14:04:30.606Z,100349.03
2023-01-21T14:07:08.499Z,100356.41
2023-01-21T14:09:52.517Z,100359.34
2023-01-21T14:12:39.748Z,100348.38
2023-01-21T14:15:33.899Z,100358.41
2023-01-21T14:18:22.915Z,100362.38
2023-01-21T14:21:39.418Z,100363.41
2023-01-21T14:24:09.887Z,100370.59
2023-01-21T14:27:02.550Z,100383.97
2023-01-21T14:29:37.841Z,100381.09
2023-01-21T14:32:11.694Z,100387.00
2023-01-21T14:34:50.478Z,100390.97
2023-01-21T14:37:29.202Z,100392.28
2023-01-21T14:40:03.087Z,100393.31
2023-01-21T14:42:50.981Z,100396.59
2023-01-21T14:45:22.583Z,100398.63
2023-01-21T14:47:53.406Z,100401.38
2023-01-21T14:50:42.894Z,100390.81
2023-01-21T14:53:13.149Z,100398.44
2023-01-21T14:55:41.398Z,100400.84
2023-01-21T14:58:27.842Z,100413.03
2023-01-21T15:00:55.452Z,100416.94
2023-01-21T15:03:29.316Z,100415.91
2023-01-21T15:05:59.544Z,100430.25
2023-01-21T15:08:46.306Z,100437.38
2023-01-21T15:11:22.107Z,100435.44
2023-01-21T15:14:03.646Z,100444.91
2023-01-21T15:16:40.174Z,100455.09
2023-01-21T15:19:11.241Z,100458.19
2023-01-21T15:21:44.882Z,100472.63
2023-01-21T15:24:35.967Z,100469.59
2023-01-21T15:27:23.568Z,100475.50
2023-01-21T15:29:54.158Z,100476.53
2023-01-21T15:32:27.838Z,100488.72
2023-01-21T15:34:58.061Z,100484.44
2023-01-21T15:37:28.038Z,100492.50
2023-01-21T15:40:02.275Z,100490.34
2023-01-21T15:42:59.037Z,100497.13
2023-01-21T15:45:36.708Z,100503.69
2023-01-21T15:48:27.540Z,100507.22
2023-01-21T15:51:07.704Z,100510.69
2023-01-21T15:53:42.696Z,100505.88
2023-01-21T15:56:36.713Z,100506.47
2023-01-21T15:59:25.988Z,100512.25
2023-01-21T16:02:24.724Z,100511.09
2023-01-21T16:05:17.206Z,100510.94
2023-01-21T16:08:09.343Z,100514.97
2023-01-21T16:10:44.210Z,100519.50
2023-01-21T16:13:23.183Z,100524.38
2023-01-21T16:16:09.695Z,100519.25
2023-01-21T16:19:03.357Z,100519.25
2023-01-21T16:21:35.627Z,100521.06
2023-01-21T16:24:13.238Z,100522.53
2023-01-21T16:26:40.783Z,100526.78
2023-01-21T16:29:11.318Z,100525.97
2023-01-21T16:31:59.378Z,100524.22
2023-01-21T16:34:42.787Z,100527.44
2023-01-21T16:37:30.497Z,100529.81
2023-01-21T16:40:10.094Z,100527.91
2023-01-21T16:42:44.071Z,100530.22
2023-01-21T16:45:22.605Z,100531.19
2023-01-21T16:47:58.957Z,100539.50
2023-01-21T16:50:30.455Z,100545.75
2023-01-21T16:53:00.996Z,100540.63
2023-01-21T16:55:31.066Z,100536.69
2023-01-21T16:57:59.397Z,100541.16
2023-01-21T17:00:31.087Z,100540.56
2023-01-21T17:03:04.626Z,100542.94
2023-01-21T17:05:36.155Z,100540.78
2023-01-21T17:08:11.415Z,100547.44
2023-01-21T17:10:52.735Z,100555.91
2023-01-21T17:13:23.036Z,100553.28
2023-01-21T17:15:57.635Z,100549.59
2023-01-21T17:18:32.684Z,100551.75
2023-01-21T17:21:19.589Z,100549.69
2023-01-21T17:24:00.340Z,100550.91
2023-01-21T17:26:34.470Z,100564.44
2023-01-21T17:29:18.855Z,100560.66
2023-01-21T17:31:55.396Z,100574.78
2023-01-21T17:34:29.088Z,100571.59
2023-01-21T17:36:57.123Z,100567.53
2023-01-21T17:39:46.486Z,100579.59
2023-01-21T17:42:19.401Z,100579.91
2023-01-21T17:44:58.661Z,100584.53
2023-01-21T17:47:56.028Z,100576.19
2023-01-21T17:50:33.766Z,100580.00
2023-01-21T17:53:04.290Z,100581.28
2023-01-21T17:55:40.823Z,100588.03
2023-01-21T17:58:48.495Z,100590.78
2023-01-21T18:01:17.037Z,100595.41
2023-01-21T18:03:45.533Z,100595.25
2023-01-21T18:06:18.360Z,100597.09
2023-01-21T18:08:46.925Z,100598.69
2023-01-21T18:11:16.469Z,100609.34
2023-01-21T18:13:44.387Z,100607.44
2023-01-21T18:16:12.223Z,100605.50
2023-01-21T18:18:40.199Z,100602.38
2023-01-21T18:21:20.221Z,100613.50
2023-01-21T18:23:48.770Z,100617.34
2023-01-21T18:26:28.131Z,100617.91
2023-01-21T18:28:56.343Z,100628.38
2023-01-21T18:31:24.387Z,100622.41
2023-01-21T18:33:51.902Z,100625.53
2023-01-21T18:36:19.477Z,100627.63
2023-01-21T18:38:46.961Z,100627.09
2023-01-21T18:41:15.646Z,100635.75
2023-01-21T18:43:43.538Z,100636.59
2023-01-21T18:46:13.443Z,100630.94
2023-01-21T18:48:42.943Z,100635.28
2023-01-21T18:51:12.254Z,100632.91
2023-01-21T18:53:40.197Z,100633.00
2023-01-21T18:56:12.871Z,100638.88
2023-01-21T18:58:40.665Z,100630.63
2023-01-21T19:01:21.938Z,100635.97
2023-01-21T19:03:54.996Z,100635.97
2023-01-21T19:06:23.925Z,100637.09
2023-01-21T19:08:52.390Z,100637.31
2023-01-21T19:11:20.125Z,100638.72
2023-01-21T19:13:47.690Z,100640.09
2023-01-21T19:16:17.847Z,100636.31
2023-01-21T19:18:45.780Z,100649.88
2023-01-21T19:21:13.790Z,100652.66
2023-01-21T19:23:41.298Z,100654.03
2023-01-21T19:26:13.799Z,100652.25
2023-01-21T19:28:41.752Z,100656.09
2023-01-21T19:31:09.307Z,100665.00
2023-01-21T19:33:37.123Z,100663.50
2023-01-21T19:36:14.861Z,100669.75
2023-01-21T19:38:47.355Z,100674.50
2023-01-21T19:41:14.871Z,100680.06
2023-01-21T19:43:42.998Z,100682.22
2023-01-21T19:46:12.564Z,100680.47
2023-01-21T19:48:40.692Z,100676.09
2023-01-21T19:51:09.523Z,100687.09
2023-01-21T19:53:37.066Z,100691.06
2023-01-21T19:56:05.844Z,100701.16
2023-01-21T19:58:33.659Z,100702.00
2023-01-21T20:01:01.767Z,100698.63
2023-01-21T20:03:30.602Z,100697.94
2023-01-21T20:06:01.690Z,100710.38
2023-01-21T20:08:31.187Z,100709.47
2023-01-21T20:10:59.107Z,100722.25
2023-01-21T20:13:31.345Z,100728.44
2023-01-21T20:16:03.824Z,100728.59
2023-01-21T20:18:34.723Z,100730.84
2023-01-21T20:21:02.620Z,100736.06
2023-01-21T20:23:32.683Z,100747.81
2023-01-21T20:26:07.093Z,100740.69
2023-01-21T20:28:43.390Z,100747.00
2023-01-21T20:31:11.630Z,100750.75
2023-01-21T20:33:39.837Z,100744.84
2023-01-21T20:36:23.901Z,100743.50
2023-01-21T20:38:52.981Z,100744.72
2023-01-21T20:41:21.278Z,100743.47
2023-01-21T20:43:48.860Z,100756.28
2023-01-21T20:46:26.853Z,100759.91
2023-01-21T20:48:54.530Z,100769.63
2023-01-21T20:51:22.622Z,100760.03
2023-01-21T20:53:51.136Z,100766.47
2023-01-21T20:56:31.575Z,100762.50
2023-01-21T20:58:59.763Z,100763.66
2023-01-21T21:01:28.692Z,100759.91
2023-01-21T21:03:56.255Z,100765.09
2023-01-21T21:06:27.919Z,100773.13
2023-01-21T21:08:56.190Z,100761.25
2023-01-21T21:11:23.788Z,100770.44
2023-01-21T21:13:52.310Z,100777.69
2023-01-21T21:16:29.863Z,100768.47
2023-01-21T21:18:58.571Z,100761.13
2023-01-21T21:21:26.511Z,100775.91
2023-01-21T21:23:54.113Z,100779.06
2023-01-21T21:26:24.306Z,100775.50
2023-01-21T21:28:59.908Z,100772.78
2023-01-21T21:31:33.026Z,100770.28
2023-01-21T21:34:01.129Z,100763.50
2023-01-21T21:36:29.147Z,100772.94
2023-01-21T21:38:57.156Z,100774.00
2023-01-21T21:41:44.857Z,100776.75
2023-01-21T21:44:13.237Z,100783.69
2023-01-21T21:47:00.727Z,100779.59
2023-01-21T21:49:29.189Z,100797.13
2023-01-21T21:51:57.221Z,100793.03
2023-01-21T21:54:25.332Z,100790.09
2023-01-21T21:56:53.240Z,100792.63
2023-01-21T21:59:20.894Z,100792.25
2023-01-21T22:01:48.398Z,100790.66
2023-01-21T22:04:16.056Z,100792.06
2023-01-21T22:06:44.666Z,100797.97
2023-01-21T22:09:13.289Z,100800.19
2023-01-21T22:11:40.970Z,100806.38
2023-01-21T22:14:09.099Z,100809.34
2023-01-21T22:16:36.635Z,100805.78
2023-01-21T22:19:04.810Z,100809.69
2023-01-21T22:21:34.112Z,100805.56
2023-01-21T22:24:03.171Z,100811.03
2023-01-21T22:26:30.981Z,100805.59
2023-01-21T22:28:58.930Z,100806.63
2023-01-21T22:31:29.725Z,100805.31
2023-01-21T22:33:59.059Z,100794.56
2023-01-21T22:36:29.802Z,100795.66
2023-01-21T22:38:57.428Z,100800.28
2023-01-21T22:41:25.895Z,100801.25
2023-01-21T22:43:53.933Z,100800.63
2023-01-21T22:46:24.629Z,100799.66
2023-01-21T22:48:54.088Z,100794.03
2023-01-21T22:51:23.067Z,100802.75
2023-01-21T22:53:52.058Z,100803.78
2023-01-21T22:56:25.433Z,100808.31
2023-01-21T22:58:59.817Z,100808.44
2023-01-21T23:01:31.459Z,100811.31
2023-01-21T23:04:00.485Z,100814.97
2023-01-21T23:06:28.647Z,100813.97
2023-01-21T23:08:56.178Z,100808.00
2023-01-21T23:11:24.092Z,100809.69
2023-01-21T23:13:53.388Z,100805.06
2023-01-21T23:16:21.740Z,100814.75
2023-01-21T23:18:49.744Z,100815.09
2023-01-21T23:21:20.109Z,100805.28
2023-01-21T23:23:48.859Z,100809.56
2023-01-21T23:26:19.219Z,100805.59
2023-01-21T23:28:47.669Z,100801.44
2023-01-21T23:31:17.609Z,100807.81
2023-01-21T23:33:49.879Z,100807.75
2023-01-21T23:36:17.777Z,100807.28
2023-01-21T23:38:45.523Z,100811.66
2023-01-21T23:41:17.038Z,100804.69
2023-01-21T23:43:44.581Z,100811.47
2023-01-21T23:46:16.425Z,100807.34
2023-01-21T23:48:44.594Z,100805.41
2023-01-21T23:51:14.247Z,100809.47
2023-01-21T23:53:41.861Z,100805.13
2023-01-21T23:56:23.832Z,100804.50
2023-01-21T23:58:52.411Z,100813.13
